sensor_id;sensor_type;location;lat;lon;timestamp;temperature;humidity
32502;DHT22;18952;52.516;13.460;2023-04-08T00:01:38;4.50;99.90
32502;DHT22;18952;52.516;13.460;2023-04-08T00:04:05;4.50;99.90
32502;DHT22;18952;52.516;13.460;2023-04-08T00:06:32;4.50;99.90
32502;DHT22;18952;52.516;13.460;2023-04-08T00:08:58;4.50;99.90
32502;DHT22;18952;52.516;13.460;2023-04-08T00:11:25;4.40;99.90
32502;DHT22;18952;52.516;13.460;2023-04-08T00:13:52;4.40;99.90
32502;DHT22;18952;52.516;13.460;2023-04-08T00:16:19;4.40;99.90
32502;DHT22;18952;52.516;13.460;2023-04-08T00:18:45;4.40;99.90
32502;DHT22;18952;52.516;13.460;2023-04-08T00:21:12;4.40;99.90
32502;DHT22;18952;52.516;13.460;2023-04-08T00:23:39;4.40;99.90
32502;DHT22;18952;52.516;13.460;2023-04-08T00:26:05;4.40;99.90
32502;DHT22;18952;52.516;13.460;2023-04-08T00:28:32;4.40;99.90
32502;DHT22;18952;52.516;13.460;2023-04-08T00:30:59;4.50;99.90
32502;DHT22;18952;52.516;13.460;2023-04-08T00:33:26;4.40;99.90
32502;DHT22;18952;52.516;13.460;2023-04-08T00:35:52;4.50;99.90
32502;DHT22;18952;52.516;13.460;2023-04-08T00:38:19;4.50;99.90
32502;DHT22;18952;52.516;13.460;2023-04-08T00:40:46;4.50;99.90
32502;DHT22;18952;52.516;13.460;2023-04-08T00:43:13;4.50;99.90
32502;DHT22;18952;52.516;13.460;2023-04-08T00:45:41;4.40;99.90
32502;DHT22;18952;52.516;13.460;2023-04-08T00:48:07;4.50;99.90
32502;DHT22;18952;52.516;13.460;2023-04-08T00:50:36;4.40;99.90
32502;DHT22;18952;52.516;13.460;2023-04-08T00:53:03;4.40;99.90
32502;DHT22;18952;52.516;13.460;2023-04-08T00:55:31;4.40;99.90
32502;DHT22;18952;52.516;13.460;2023-04-08T00:57:59;4.40;99.90
32502;DHT22;18952;52.516;13.460;2023-04-08T01:00:29;4.30;99.90
32502;DHT22;18952;52.516;13.460;2023-04-08T01:08:28;4.30;99.90
32502;DHT22;18952;52.516;13.460;2023-04-08T01:11:00;4.40;99.90
32502;DHT22;18952;52.516;13.460;2023-04-08T01:13:31;4.40;99.90
32502;DHT22;18952;52.516;13.460;2023-04-08T01:16:01;4.40;99.90
32502;DHT22;18952;52.516;13.460;2023-04-08T01:18:30;4.40;99.90
32502;DHT22;18952;52.516;13.460;2023-04-08T01:21:00;4.40;99.90
32502;DHT22;18952;52.516;13.460;2023-04-08T01:26:24;4.50;99.90
32502;DHT22;18952;52.516;13.460;2023-04-08T01:28:53;4.50;99.90
32502;DHT22;18952;52.516;13.460;2023-04-08T01:31:23;4.60;99.90
32502;DHT22;18952;52.516;13.460;2023-04-08T01:33:51;4.60;99.90
32502;DHT22;18952;52.516;13.460;2023-04-08T01:36:19;4.60;99.90
32502;DHT22;18952;52.516;13.460;2023-04-08T01:38:47;4.60;99.90
32502;DHT22;18952;52.516;13.460;2023-04-08T01:41:16;4.60;99.90
32502;DHT22;18952;52.516;13.460;2023-04-08T01:43:43;4.50;99.90
32502;DHT22;18952;52.516;13.460;2023-04-08T01:46:11;4.50;99.90
32502;DHT22;18952;52.516;13.460;2023-04-08T01:48:40;4.50;99.90
32502;DHT22;18952;52.516;13.460;2023-04-08T01:51:10;4.50;99.90
32502;DHT22;18952;52.516;13.460;2023-04-08T01:53:39;4.60;99.90
32502;DHT22;18952;52.516;13.460;2023-04-08T01:56:10;4.60;99.90
32502;DHT22;18952;52.516;13.460;2023-04-08T01:58:50;4.60;99.90
32502;DHT22;18952;52.516;13.460;2023-04-08T02:01:20;4.50;99.90
32502;DHT22;18952;52.516;13.460;2023-04-08T02:03:50;4.60;99.90
32502;DHT22;18952;52.516;13.460;2023-04-08T02:06:19;4.50;99.90
32502;DHT22;18952;52.516;13.460;2023-04-08T02:08:45;4.40;99.90
32502;DHT22;18952;52.516;13.460;2023-04-08T02:11:12;4.40;99.90
32502;DHT22;18952;52.516;13.460;2023-04-08T02:13:39;4.50;99.90
32502;DHT22;18952;52.516;13.460;2023-04-08T02:16:15;4.60;99.90
32502;DHT22;18952;52.516;13.460;2023-04-08T02:21:58;4.80;99.90
32502;DHT22;18952;52.516;13.460;2023-04-08T02:24:28;4.80;99.90
32502;DHT22;18952;52.516;13.460;2023-04-08T02:26:56;4.80;99.90
32502;DHT22;18952;52.516;13.460;2023-04-08T02:29:23;4.80;99.90
32502;DHT22;18952;52.516;13.460;2023-04-08T02:31:51;4.90;99.90
32502;DHT22;18952;52.516;13.460;2023-04-08T02:34:19;4.90;99.90
32502;DHT22;18952;52.516;13.460;2023-04-08T02:36:47;4.80;99.90
32502;DHT22;18952;52.516;13.460;2023-04-08T02:39:14;4.80;99.90
32502;DHT22;18952;52.516;13.460;2023-04-08T02:41:41;4.80;99.90
32502;DHT22;18952;52.516;13.460;2023-04-08T02:44:09;4.70;99.90
32502;DHT22;18952;52.516;13.460;2023-04-08T02:46:37;4.80;99.90
32502;DHT22;18952;52.516;13.460;2023-04-08T02:49:05;4.80;99.90
32502;DHT22;18952;52.516;13.460;2023-04-08T02:51:33;4.80;99.90
32502;DHT22;18952;52.516;13.460;2023-04-08T02:54:00;4.80;99.90
32502;DHT22;18952;52.516;13.460;2023-04-08T02:56:27;4.80;99.90
32502;DHT22;18952;52.516;13.460;2023-04-08T02:58:55;4.90;99.90
32502;DHT22;18952;52.516;13.460;2023-04-08T03:01:25;4.90;99.90
32502;DHT22;18952;52.516;13.460;2023-04-08T03:03:54;4.90;99.90
32502;DHT22;18952;52.516;13.460;2023-04-08T03:06:22;4.90;99.90
32502;DHT22;18952;52.516;13.460;2023-04-08T03:08:49;5.00;99.90
32502;DHT22;18952;52.516;13.460;2023-04-08T03:11:16;5.00;99.90
32502;DHT22;18952;52.516;13.460;2023-04-08T03:13:43;5.00;99.90
32502;DHT22;18952;52.516;13.460;2023-04-08T03:16:09;5.00;99.90
32502;DHT22;18952;52.516;13.460;2023-04-08T03:18:37;5.10;99.90
32502;DHT22;18952;52.516;13.460;2023-04-08T03:21:03;5.10;99.90
32502;DHT22;18952;52.516;13.460;2023-04-08T03:23:30;5.10;99.90
32502;DHT22;18952;52.516;13.460;2023-04-08T03:25:57;5.10;99.90
32502;DHT22;18952;52.516;13.460;2023-04-08T03:28:23;5.10;99.90
32502;DHT22;18952;52.516;13.460;2023-04-08T03:30:50;5.20;99.90
32502;DHT22;18952;52.516;13.460;2023-04-08T03:33:19;5.10;99.90
32502;DHT22;18952;52.516;13.460;2023-04-08T03:35:45;5.10;99.90
32502;DHT22;18952;52.516;13.460;2023-04-08T03:38:12;5.10;99.90
32502;DHT22;18952;52.516;13.460;2023-04-08T03:40:39;5.10;99.90
32502;DHT22;18952;52.516;13.460;2023-04-08T03:43:06;5.10;99.90
32502;DHT22;18952;52.516;13.460;2023-04-08T03:45:33;5.10;99.90
32502;DHT22;18952;52.516;13.460;2023-04-08T03:47:59;5.00;99.90
32502;DHT22;18952;52.516;13.460;2023-04-08T03:50:26;5.00;99.90
32502;DHT22;18952;52.516;13.460;2023-04-08T03:52:53;5.10;99.90
32502;DHT22;18952;52.516;13.460;2023-04-08T03:55:19;5.00;99.90
32502;DHT22;18952;52.516;13.460;2023-04-08T03:57:46;5.00;99.90
32502;DHT22;18952;52.516;13.460;2023-04-08T04:00:13;5.00;99.90
32502;DHT22;18952;52.516;13.460;2023-04-08T04:02:41;5.00;99.90
32502;DHT22;18952;52.516;13.460;2023-04-08T04:05:08;5.00;99.90
32502;DHT22;18952;52.516;13.460;2023-04-08T04:07:36;5.00;99.90
32502;DHT22;18952;52.516;13.460;2023-04-08T04:10:05;5.10;99.90
32502;DHT22;18952;52.516;13.460;2023-04-08T04:12:33;5.10;99.90
32502;DHT22;18952;52.516;13.460;2023-04-08T04:15:00;5.10;99.90
32502;DHT22;18952;52.516;13.460;2023-04-08T04:17:28;5.10;99.90
32502;DHT22;18952;52.516;13.460;2023-04-08T04:19:55;5.10;99.90
32502;DHT22;18952;52.516;13.460;2023-04-08T04:22:26;5.10;99.90
32502;DHT22;18952;52.516;13.460;2023-04-08T04:24:57;5.10;99.90
32502;DHT22;18952;52.516;13.460;2023-04-08T04:27:24;5.10;99.90
32502;DHT22;18952;52.516;13.460;2023-04-08T04:29:52;5.10;99.90
32502;DHT22;18952;52.516;13.460;2023-04-08T04:32:20;5.20;99.90
32502;DHT22;18952;52.516;13.460;2023-04-08T04:34:51;5.10;99.90
32502;DHT22;18952;52.516;13.460;2023-04-08T04:37:18;5.20;99.90
32502;DHT22;18952;52.516;13.460;2023-04-08T04:39:47;5.20;99.90
32502;DHT22;18952;52.516;13.460;2023-04-08T04:42:16;5.20;99.90
32502;DHT22;18952;52.516;13.460;2023-04-08T04:44:42;5.20;99.90
32502;DHT22;18952;52.516;13.460;2023-04-08T04:47:09;5.20;99.90
32502;DHT22;18952;52.516;13.460;2023-04-08T04:49:36;5.20;99.90
32502;DHT22;18952;52.516;13.460;2023-04-08T04:52:04;5.30;99.90
32502;DHT22;18952;52.516;13.460;2023-04-08T04:54:30;5.20;99.90
32502;DHT22;18952;52.516;13.460;2023-04-08T04:56:57;5.30;99.90
32502;DHT22;18952;52.516;13.460;2023-04-08T04:59:24;5.30;99.90
32502;DHT22;18952;52.516;13.460;2023-04-08T05:01:50;5.30;99.90
32502;DHT22;18952;52.516;13.460;2023-04-08T05:04:17;5.30;99.90
32502;DHT22;18952;52.516;13.460;2023-04-08T05:06:44;5.30;99.90
32502;DHT22;18952;52.516;13.460;2023-04-08T05:09:11;5.30;99.90
32502;DHT22;18952;52.516;13.460;2023-04-08T05:11:39;5.30;99.90
32502;DHT22;18952;52.516;13.460;2023-04-08T05:14:06;5.40;99.90
32502;DHT22;18952;52.516;13.460;2023-04-08T05:16:33;5.40;99.90
32502;DHT22;18952;52.516;13.460;2023-04-08T05:19:02;5.40;99.90
32502;DHT22;18952;52.516;13.460;2023-04-08T05:21:30;5.50;99.90
32502;DHT22;18952;52.516;13.460;2023-04-08T05:23:57;5.50;99.90
32502;DHT22;18952;52.516;13.460;2023-04-08T05:26:25;5.50;99.90
32502;DHT22;18952;52.516;13.460;2023-04-08T05:28:52;5.50;99.90
32502;DHT22;18952;52.516;13.460;2023-04-08T05:31:22;5.50;99.90
32502;DHT22;18952;52.516;13.460;2023-04-08T05:33:49;5.50;99.90
32502;DHT22;18952;52.516;13.460;2023-04-08T05:36:17;5.50;99.90
32502;DHT22;18952;52.516;13.460;2023-04-08T05:38:46;5.50;99.90
32502;DHT22;18952;52.516;13.460;2023-04-08T05:41:14;5.50;99.90
32502;DHT22;18952;52.516;13.460;2023-04-08T05:43:42;5.60;99.90
32502;DHT22;18952;52.516;13.460;2023-04-08T05:46:13;5.60;99.90
32502;DHT22;18952;52.516;13.460;2023-04-08T05:48:40;5.70;99.90
32502;DHT22;18952;52.516;13.460;2023-04-08T05:51:16;5.70;99.90
32502;DHT22;18952;52.516;13.460;2023-04-08T05:53:44;5.80;99.90
32502;DHT22;18952;52.516;13.460;2023-04-08T05:56:19;5.80;99.90
32502;DHT22;18952;52.516;13.460;2023-04-08T05:58:46;5.80;99.90
32502;DHT22;18952;52.516;13.460;2023-04-08T06:01:13;5.80;99.90
32502;DHT22;18952;52.516;13.460;2023-04-08T06:03:39;5.80;99.90
32502;DHT22;18952;52.516;13.460;2023-04-08T06:06:10;5.80;99.90
32502;DHT22;18952;52.516;13.460;2023-04-08T06:08:37;5.80;99.90
32502;DHT22;18952;52.516;13.460;2023-04-08T06:11:04;5.80;99.90
32502;DHT22;18952;52.516;13.460;2023-04-08T06:13:31;5.80;99.90
32502;DHT22;18952;52.516;13.460;2023-04-08T06:15:58;5.80;99.90
32502;DHT22;18952;52.516;13.460;2023-04-08T06:18:35;5.70;99.90
32502;DHT22;18952;52.516;13.460;2023-04-08T06:21:02;5.70;99.90
32502;DHT22;18952;52.516;13.460;2023-04-08T06:23:28;5.70;99.90
32502;DHT22;18952;52.516;13.460;2023-04-08T06:25:55;5.80;99.90
32502;DHT22;18952;52.516;13.460;2023-04-08T06:28:23;5.90;99.90
32502;DHT22;18952;52.516;13.460;2023-04-08T06:30:51;6.00;99.90
32502;DHT22;18952;52.516;13.460;2023-04-08T06:33:18;6.10;99.90
32502;DHT22;18952;52.516;13.460;2023-04-08T06:35:46;6.20;99.90
32502;DHT22;18952;52.516;13.460;2023-04-08T06:38:12;6.20;99.90
32502;DHT22;18952;52.516;13.460;2023-04-08T06:40:39;6.30;99.90
32502;DHT22;18952;52.516;13.460;2023-04-08T06:43:07;6.30;99.90
32502;DHT22;18952;52.516;13.460;2023-04-08T06:45:37;6.30;99.90
32502;DHT22;18952;52.516;13.460;2023-04-08T06:48:07;6.40;99.90
32502;DHT22;18952;52.516;13.460;2023-04-08T06:50:34;6.40;99.90
32502;DHT22;18952;52.516;13.460;2023-04-08T06:53:03;6.50;99.90
32502;DHT22;18952;52.516;13.460;2023-04-08T06:55:34;6.50;99.90
32502;DHT22;18952;52.516;13.460;2023-04-08T06:58:03;6.60;99.90
32502;DHT22;18952;52.516;13.460;2023-04-08T07:00:31;6.60;99.90
32502;DHT22;18952;52.516;13.460;2023-04-08T07:03:02;6.70;99.90
32502;DHT22;18952;52.516;13.460;2023-04-08T07:05:29;6.70;99.90
32502;DHT22;18952;52.516;13.460;2023-04-08T07:07:57;6.80;99.90
32502;DHT22;18952;52.516;13.460;2023-04-08T07:10:24;6.90;99.90
32502;DHT22;18952;52.516;13.460;2023-04-08T07:12:51;7.00;99.90
32502;DHT22;18952;52.516;13.460;2023-04-08T07:15:19;7.00;99.90
32502;DHT22;18952;52.516;13.460;2023-04-08T07:17:46;7.00;99.90
32502;DHT22;18952;52.516;13.460;2023-04-08T07:20:13;7.10;99.90
32502;DHT22;18952;52.516;13.460;2023-04-08T07:22:39;7.20;99.90
32502;DHT22;18952;52.516;13.460;2023-04-08T07:25:06;7.30;99.90
32502;DHT22;18952;52.516;13.460;2023-04-08T07:27:33;7.40;99.90
32502;DHT22;18952;52.516;13.460;2023-04-08T07:30:00;7.40;99.90
32502;DHT22;18952;52.516;13.460;2023-04-08T07:32:27;7.50;99.90
32502;DHT22;18952;52.516;13.460;2023-04-08T07:34:54;7.50;99.90
32502;DHT22;18952;52.516;13.460;2023-04-08T07:37:21;7.60;99.90
32502;DHT22;18952;52.516;13.460;2023-04-08T07:39:48;7.60;99.90
32502;DHT22;18952;52.516;13.460;2023-04-08T07:42:14;7.60;99.90
32502;DHT22;18952;52.516;13.460;2023-04-08T07:44:41;7.60;99.90
32502;DHT22;18952;52.516;13.460;2023-04-08T07:47:09;7.70;99.90
32502;DHT22;18952;52.516;13.460;2023-04-08T07:49:37;7.70;99.90
32502;DHT22;18952;52.516;13.460;2023-04-08T07:52:05;7.70;99.90
32502;DHT22;18952;52.516;13.460;2023-04-08T07:54:32;7.80;99.90
32502;DHT22;18952;52.516;13.460;2023-04-08T07:57:00;7.80;99.90
32502;DHT22;18952;52.516;13.460;2023-04-08T07:59:28;7.90;99.90
32502;DHT22;18952;52.516;13.460;2023-04-08T08:01:56;8.00;99.90
32502;DHT22;18952;52.516;13.460;2023-04-08T08:04:23;8.00;99.90
32502;DHT22;18952;52.516;13.460;2023-04-08T08:06:52;8.10;99.90
32502;DHT22;18952;52.516;13.460;2023-04-08T08:09:18;7.90;99.90
32502;DHT22;18952;52.516;13.460;2023-04-08T08:11:46;7.80;99.90
32502;DHT22;18952;52.516;13.460;2023-04-08T08:14:13;7.70;99.90
32502;DHT22;18952;52.516;13.460;2023-04-08T08:16:41;7.90;99.90
32502;DHT22;18952;52.516;13.460;2023-04-08T08:19:09;8.00;99.90
32502;DHT22;18952;52.516;13.460;2023-04-08T08:21:38;8.00;99.90
32502;DHT22;18952;52.516;13.460;2023-04-08T08:24:05;8.00;99.90
32502;DHT22;18952;52.516;13.460;2023-04-08T08:26:35;8.10;99.90
32502;DHT22;18952;52.516;13.460;2023-04-08T08:29:02;8.20;99.90
32502;DHT22;18952;52.516;13.460;2023-04-08T08:31:29;8.20;99.90
32502;DHT22;18952;52.516;13.460;2023-04-08T08:33:56;8.30;99.90
32502;DHT22;18952;52.516;13.460;2023-04-08T08:36:23;8.30;99.90
32502;DHT22;18952;52.516;13.460;2023-04-08T08:38:49;8.30;99.90
32502;DHT22;18952;52.516;13.460;2023-04-08T08:41:16;8.30;99.90
32502;DHT22;18952;52.516;13.460;2023-04-08T08:43:43;8.40;99.90
32502;DHT22;18952;52.516;13.460;2023-04-08T08:46:10;8.40;99.90
32502;DHT22;18952;52.516;13.460;2023-04-08T08:48:37;8.50;99.90
32502;DHT22;18952;52.516;13.460;2023-04-08T08:51:10;8.60;99.90
32502;DHT22;18952;52.516;13.460;2023-04-08T08:53:37;8.80;99.90
32502;DHT22;18952;52.516;13.460;2023-04-08T08:56:07;8.90;99.90
32502;DHT22;18952;52.516;13.460;2023-04-08T08:58:38;8.90;99.90
32502;DHT22;18952;52.516;13.460;2023-04-08T09:04:09;9.10;99.90
32502;DHT22;18952;52.516;13.460;2023-04-08T09:06:37;9.00;99.90
32502;DHT22;18952;52.516;13.460;2023-04-08T09:09:04;8.90;99.90
32502;DHT22;18952;52.516;13.460;2023-04-08T09:11:31;8.90;99.90
32502;DHT22;18952;52.516;13.460;2023-04-08T09:13:58;8.80;99.90
32502;DHT22;18952;52.516;13.460;2023-04-08T09:16:25;8.80;99.90
32502;DHT22;18952;52.516;13.460;2023-04-08T09:18:52;8.90;99.90
32502;DHT22;18952;52.516;13.460;2023-04-08T09:21:21;8.80;99.90
32502;DHT22;18952;52.516;13.460;2023-04-08T09:23:50;8.80;99.90
32502;DHT22;18952;52.516;13.460;2023-04-08T09:26:22;8.80;99.90
32502;DHT22;18952;52.516;13.460;2023-04-08T09:29:09;8.90;99.90
32502;DHT22;18952;52.516;13.460;2023-04-08T09:31:57;8.80;99.90
32502;DHT22;18952;52.516;13.460;2023-04-08T09:34:24;8.80;99.90
32502;DHT22;18952;52.516;13.460;2023-04-08T09:36:52;8.80;99.90
32502;DHT22;18952;52.516;13.460;2023-04-08T09:39:19;8.90;99.90
32502;DHT22;18952;52.516;13.460;2023-04-08T09:41:50;8.90;99.90
32502;DHT22;18952;52.516;13.460;2023-04-08T09:44:20;9.00;99.90
32502;DHT22;18952;52.516;13.460;2023-04-08T09:47:07;9.20;99.90
32502;DHT22;18952;52.516;13.460;2023-04-08T09:49:54;9.30;99.90
32502;DHT22;18952;52.516;13.460;2023-04-08T09:52:57;9.30;99.90
32502;DHT22;18952;52.516;13.460;2023-04-08T09:55:29;9.40;99.90
32502;DHT22;18952;52.516;13.460;2023-04-08T09:58:03;9.50;99.90
32502;DHT22;18952;52.516;13.460;2023-04-08T10:00:34;9.60;99.90
32502;DHT22;18952;52.516;13.460;2023-04-08T10:03:15;9.80;99.90
32502;DHT22;18952;52.516;13.460;2023-04-08T10:05:46;10.00;99.90
32502;DHT22;18952;52.516;13.460;2023-04-08T10:08:14;10.00;99.90
32502;DHT22;18952;52.516;13.460;2023-04-08T10:10:42;10.10;99.90
32502;DHT22;18952;52.516;13.460;2023-04-08T10:13:09;10.20;99.90
32502;DHT22;18952;52.516;13.460;2023-04-08T10:15:36;10.40;99.90
32502;DHT22;18952;52.516;13.460;2023-04-08T10:23:06;10.50;99.90
32502;DHT22;18952;52.516;13.460;2023-04-08T10:25:35;10.50;99.90
32502;DHT22;18952;52.516;13.460;2023-04-08T10:28:22;10.50;99.90
32502;DHT22;18952;52.516;13.460;2023-04-08T10:33:31;10.70;99.90
32502;DHT22;18952;52.516;13.460;2023-04-08T10:38:25;10.80;99.90
32502;DHT22;18952;52.516;13.460;2023-04-08T10:40:53;10.90;99.90
32502;DHT22;18952;52.516;13.460;2023-04-08T10:43:20;10.90;99.90
32502;DHT22;18952;52.516;13.460;2023-04-08T10:45:47;11.00;99.90
32502;DHT22;18952;52.516;13.460;2023-04-08T10:48:15;11.10;99.90
32502;DHT22;18952;52.516;13.460;2023-04-08T10:50:43;11.10;99.90
32502;DHT22;18952;52.516;13.460;2023-04-08T10:53:10;11.20;99.90
32502;DHT22;18952;52.516;13.460;2023-04-08T10:55:37;11.20;99.90
32502;DHT22;18952;52.516;13.460;2023-04-08T10:58:05;11.30;99.90
32502;DHT22;18952;52.516;13.460;2023-04-08T11:00:37;11.30;99.90
32502;DHT22;18952;52.516;13.460;2023-04-08T11:03:07;11.40;99.90
32502;DHT22;18952;52.516;13.460;2023-04-08T11:05:35;11.30;99.90
32502;DHT22;18952;52.516;13.460;2023-04-08T11:08:02;11.30;99.90
32502;DHT22;18952;52.516;13.460;2023-04-08T11:10:29;11.20;99.90
32502;DHT22;18952;52.516;13.460;2023-04-08T11:12:57;11.30;99.90
32502;DHT22;18952;52.516;13.460;2023-04-08T11:15:24;11.30;99.90
32502;DHT22;18952;52.516;13.460;2023-04-08T11:17:52;11.30;99.90
32502;DHT22;18952;52.516;13.460;2023-04-08T11:20:19;11.40;99.90
32502;DHT22;18952;52.516;13.460;2023-04-08T11:22:46;11.50;99.90
32502;DHT22;18952;52.516;13.460;2023-04-08T11:25:14;11.60;99.90
32502;DHT22;18952;52.516;13.460;2023-04-08T11:27:41;11.70;99.90
32502;DHT22;18952;52.516;13.460;2023-04-08T11:30:10;11.70;99.90
32502;DHT22;18952;52.516;13.460;2023-04-08T11:32:38;11.80;99.90
32502;DHT22;18952;52.516;13.460;2023-04-08T11:35:07;11.90;99.90
32502;DHT22;18952;52.516;13.460;2023-04-08T11:37:39;11.80;99.90
32502;DHT22;18952;52.516;13.460;2023-04-08T11:40:10;12.00;99.90
32502;DHT22;18952;52.516;13.460;2023-04-08T11:42:38;12.10;99.90
32502;DHT22;18952;52.516;13.460;2023-04-08T11:45:10;12.10;99.90
32502;DHT22;18952;52.516;13.460;2023-04-08T11:47:38;12.00;99.90
32502;DHT22;18952;52.516;13.460;2023-04-08T11:50:06;12.00;99.90
32502;DHT22;18952;52.516;13.460;2023-04-08T11:52:47;11.90;99.90
32502;DHT22;18952;52.516;13.460;2023-04-08T11:55:26;11.90;99.90
32502;DHT22;18952;52.516;13.460;2023-04-08T11:57:54;11.90;99.90
32502;DHT22;18952;52.516;13.460;2023-04-08T12:00:23;11.80;99.90
32502;DHT22;18952;52.516;13.460;2023-04-08T12:02:50;11.90;99.90
32502;DHT22;18952;52.516;13.460;2023-04-08T12:05:19;11.90;99.90
32502;DHT22;18952;52.516;13.460;2023-04-08T12:07:46;11.90;99.90
32502;DHT22;18952;52.516;13.460;2023-04-08T12:10:13;11.90;99.90
32502;DHT22;18952;52.516;13.460;2023-04-08T12:12:40;11.90;99.90
32502;DHT22;18952;52.516;13.460;2023-04-08T12:15:09;11.90;99.90
32502;DHT22;18952;52.516;13.460;2023-04-08T12:17:36;12.00;99.90
32502;DHT22;18952;52.516;13.460;2023-04-08T12:20:06;12.00;99.90
32502;DHT22;18952;52.516;13.460;2023-04-08T12:22:32;12.00;99.90
32502;DHT22;18952;52.516;13.460;2023-04-08T12:25:01;12.10;99.90
32502;DHT22;18952;52.516;13.460;2023-04-08T12:27:29;12.30;99.90
32502;DHT22;18952;52.516;13.460;2023-04-08T12:30:01;12.50;99.90
32502;DHT22;18952;52.516;13.460;2023-04-08T12:32:29;12.60;99.90
32502;DHT22;18952;52.516;13.460;2023-04-08T12:34:56;12.70;99.90
32502;DHT22;18952;52.516;13.460;2023-04-08T12:37:27;12.70;99.90
32502;DHT22;18952;52.516;13.460;2023-04-08T12:39:55;12.60;99.90
32502;DHT22;18952;52.516;13.460;2023-04-08T12:42:27;12.50;99.90
32502;DHT22;18952;52.516;13.460;2023-04-08T12:44:54;12.50;99.90
32502;DHT22;18952;52.516;13.460;2023-04-08T12:47:22;12.70;99.90
32502;DHT22;18952;52.516;13.460;2023-04-08T12:49:53;12.80;99.90
32502;DHT22;18952;52.516;13.460;2023-04-08T12:52:19;12.80;99.90
32502;DHT22;18952;52.516;13.460;2023-04-08T12:54:46;12.80;99.90
32502;DHT22;18952;52.516;13.460;2023-04-08T12:57:13;12.70;99.90
32502;DHT22;18952;52.516;13.460;2023-04-08T12:59:40;12.70;99.90
32502;DHT22;18952;52.516;13.460;2023-04-08T13:02:06;12.90;99.90
32502;DHT22;18952;52.516;13.460;2023-04-08T13:04:34;13.20;99.90
32502;DHT22;18952;52.516;13.460;2023-04-08T13:07:00;13.60;99.90
32502;DHT22;18952;52.516;13.460;2023-04-08T13:09:27;13.70;99.90
32502;DHT22;18952;52.516;13.460;2023-04-08T13:11:54;13.70;99.90
32502;DHT22;18952;52.516;13.460;2023-04-08T13:14:21;13.50;99.90
32502;DHT22;18952;52.516;13.460;2023-04-08T13:16:47;13.30;99.90
32502;DHT22;18952;52.516;13.460;2023-04-08T13:19:14;13.20;99.90
32502;DHT22;18952;52.516;13.460;2023-04-08T13:21:41;13.10;99.90
32502;DHT22;18952;52.516;13.460;2023-04-08T13:24:11;13.10;99.90
32502;DHT22;18952;52.516;13.460;2023-04-08T13:26:39;13.10;99.90
32502;DHT22;18952;52.516;13.460;2023-04-08T13:29:06;13.40;99.90
32502;DHT22;18952;52.516;13.460;2023-04-08T13:31:33;13.90;99.90
32502;DHT22;18952;52.516;13.460;2023-04-08T13:34:01;14.40;99.90
32502;DHT22;18952;52.516;13.460;2023-04-08T13:36:28;14.90;99.90
32502;DHT22;18952;52.516;13.460;2023-04-08T13:38:56;15.40;99.90
32502;DHT22;18952;52.516;13.460;2023-04-08T13:41:22;15.80;99.90
32502;DHT22;18952;52.516;13.460;2023-04-08T13:43:49;15.90;99.00
32502;DHT22;18952;52.516;13.460;2023-04-08T13:46:16;15.60;97.40
32502;DHT22;18952;52.516;13.460;2023-04-08T13:48:43;15.30;97.30
32502;DHT22;18952;52.516;13.460;2023-04-08T13:51:10;15.00;97.60
32502;DHT22;18952;52.516;13.460;2023-04-08T13:53:37;14.70;98.40
32502;DHT22;18952;52.516;13.460;2023-04-08T13:56:04;14.50;98.00
32502;DHT22;18952;52.516;13.460;2023-04-08T13:58:31;14.40;98.60
32502;DHT22;18952;52.516;13.460;2023-04-08T14:00:57;14.70;98.10
32502;DHT22;18952;52.516;13.460;2023-04-08T14:03:24;15.10;97.80
32502;DHT22;18952;52.516;13.460;2023-04-08T14:05:51;15.40;97.00
32502;DHT22;18952;52.516;13.460;2023-04-08T14:08:18;15.70;96.60
32502;DHT22;18952;52.516;13.460;2023-04-08T14:10:45;15.80;96.10
32502;DHT22;18952;52.516;13.460;2023-04-08T14:13:12;16.00;96.00
32502;DHT22;18952;52.516;13.460;2023-04-08T14:15:39;16.40;94.90
32502;DHT22;18952;52.516;13.460;2023-04-08T14:18:07;16.80;94.10
32502;DHT22;18952;52.516;13.460;2023-04-08T14:20:37;17.30;92.90
32502;DHT22;18952;52.516;13.460;2023-04-08T14:23:04;17.60;91.90
32502;DHT22;18952;52.516;13.460;2023-04-08T14:25:32;17.60;91.30
32502;DHT22;18952;52.516;13.460;2023-04-08T14:28:02;17.40;90.70
32502;DHT22;18952;52.516;13.460;2023-04-08T14:30:31;16.80;90.00
32502;DHT22;18952;52.516;13.460;2023-04-08T14:32:58;16.30;90.30
32502;DHT22;18952;52.516;13.460;2023-04-08T14:35:26;16.00;91.20
32502;DHT22;18952;52.516;13.460;2023-04-08T14:37:56;15.80;91.10
32502;DHT22;18952;52.516;13.460;2023-04-08T14:40:23;15.60;91.10
32502;DHT22;18952;52.516;13.460;2023-04-08T14:42:50;15.30;91.50
32502;DHT22;18952;52.516;13.460;2023-04-08T14:45:16;15.40;92.60
32502;DHT22;18952;52.516;13.460;2023-04-08T14:47:43;15.80;92.00
32502;DHT22;18952;52.516;13.460;2023-04-08T14:50:12;16.00;90.70
32502;DHT22;18952;52.516;13.460;2023-04-08T14:52:38;16.00;90.00
32502;DHT22;18952;52.516;13.460;2023-04-08T14:55:06;15.90;90.00
32502;DHT22;18952;52.516;13.460;2023-04-08T14:57:32;15.90;90.00
32502;DHT22;18952;52.516;13.460;2023-04-08T15:00:00;15.70;89.50
32502;DHT22;18952;52.516;13.460;2023-04-08T15:02:26;15.60;89.10
32502;DHT22;18952;52.516;13.460;2023-04-08T15:04:53;15.90;89.90
32502;DHT22;18952;52.516;13.460;2023-04-08T15:07:20;16.20;89.00
32502;DHT22;18952;52.516;13.460;2023-04-08T15:09:47;16.50;88.50
32502;DHT22;18952;52.516;13.460;2023-04-08T15:12:13;16.80;88.00
32502;DHT22;18952;52.516;13.460;2023-04-08T15:14:40;16.70;88.10
32502;DHT22;18952;52.516;13.460;2023-04-08T15:17:08;16.60;87.70
32502;DHT22;18952;52.516;13.460;2023-04-08T15:19:36;16.30;87.20
32502;DHT22;18952;52.516;13.460;2023-04-08T15:22:03;16.10;88.30
32502;DHT22;18952;52.516;13.460;2023-04-08T15:24:30;15.80;87.10
32502;DHT22;18952;52.516;13.460;2023-04-08T15:26:58;15.50;88.20
32502;DHT22;18952;52.516;13.460;2023-04-08T15:29:25;15.20;89.70
32502;DHT22;18952;52.516;13.460;2023-04-08T15:31:53;15.10;90.00
32502;DHT22;18952;52.516;13.460;2023-04-08T15:34:21;14.90;88.60
32502;DHT22;18952;52.516;13.460;2023-04-08T15:36:48;14.90;89.70
32502;DHT22;18952;52.516;13.460;2023-04-08T15:39:17;15.00;89.70
32502;DHT22;18952;52.516;13.460;2023-04-08T15:41:43;15.40;89.30
32502;DHT22;18952;52.516;13.460;2023-04-08T15:44:12;15.60;89.20
32502;DHT22;18952;52.516;13.460;2023-04-08T15:46:38;15.90;88.00
32502;DHT22;18952;52.516;13.460;2023-04-08T15:49:06;16.10;88.10
32502;DHT22;18952;52.516;13.460;2023-04-08T15:51:33;16.30;88.00
32502;DHT22;18952;52.516;13.460;2023-04-08T15:54:00;16.40;86.50
32502;DHT22;18952;52.516;13.460;2023-04-08T15:56:27;16.50;85.60